Del Rio/Laughlin AFB, Texas
Current Conditions -  °F | °C
As of 5:58 PM on Monday 24 Nov 2014 (Local Time) from KDLF Reporting Station
Clear Clear  
Wind Chill: 58°   Ceiling: Unl
Heat Index: 58°   Visibility: 10mi
Dew Point: 35°   Wind: 6mph
Humidity: 43%   Direction: 10°N
Pressure: 30.05"   Gusts: NA
Location:  29.36°N, 100.78°W
Report Text: KDLF 242358Z AUTO 01005KT 10SM CLR 14/02 A3005 RMK AO2 SLP174 T01420017 10184 20142 402320053 52008 $
Loading
Personal Weather Stations






























Interactive Weather Map New forecast layout! Learn more

10-Day Weather Forecast

Advertisements
Track Severe Weather on mobile